Time;durP1;ratioP1;P1;durP2;ratioP2;P2;SDS_P1;SDS_P2;PMS_P1;PMS_P2;Temp;Humidity;BMP_temperature;BMP_pressure;BME280_temperature;BME280_humidity;BME280_pressure;Samples;Min_cycle;Max_cycle;Signal;HPM_P1;HPM_P2
2023/03/08 00:00:16;;;;;;;2.50;2.00;;;7.00;43.60;;;;;;5013743;28;20210;-55
2023/03/08 00:02:42;;;;;;;2.42;1.70;;;6.90;43.80;;;;;;5013762;28;21186;-52
2023/03/08 00:05:09;;;;;;;2.47;1.50;;;6.90;43.90;;;;;;5013538;28;20198;-52
2023/03/08 00:07:35;;;;;;;3.28;1.85;;;6.80;43.80;;;;;;5013936;28;20170;-56
2023/03/08 00:10:00;;;;;;;3.50;2.43;;;6.80;43.80;;;;;;5013703;28;20717;-55
2023/03/08 00:12:27;;;;;;;3.80;2.33;;;6.80;43.90;;;;;;5013839;28;20413;-55
2023/03/08 00:14:53;;;;;;;2.45;1.90;;;6.80;44.00;;;;;;5013376;28;20421;-55
2023/03/08 00:17:19;;;;;;;4.20;2.20;;;6.70;44.10;;;;;;5013652;28;20730;-53
2023/03/08 00:19:45;;;;;;;3.40;2.60;;;6.70;44.00;;;;;;5013534;28;20199;-53
2023/03/08 00:22:11;;;;;;;3.00;2.10;;;6.70;44.00;;;;;;5013527;28;20898;-56
2023/03/08 00:24:37;;;;;;;3.37;2.37;;;6.70;44.10;;;;;;5013476;28;20438;-56
2023/03/08 00:27:03;;;;;;;3.80;2.00;;;6.70;44.10;;;;;;5013452;28;20902;-58
2023/03/08 00:29:30;;;;;;;3.77;3.03;;;6.70;44.10;;;;;;5013434;28;20224;-54
2023/03/08 00:31:56;;;;;;;4.47;2.75;;;6.70;44.10;;;;;;5013871;28;20450;-52
2023/03/08 00:34:22;;;;;;;3.60;2.67;;;6.70;44.20;;;;;;5013150;28;20190;-52
2023/03/08 00:36:48;;;;;;;2.70;2.10;;;6.70;44.20;;;;;;5013296;28;20197;-55
2023/03/08 00:39:15;;;;;;;3.93;2.83;;;6.70;44.30;;;;;;5013350;28;20453;-52
2023/03/08 00:41:41;;;;;;;5.65;2.15;;;6.60;44.30;;;;;;5013209;28;20671;-52
2023/03/08 00:44:07;;;;;;;3.50;2.40;;;6.60;44.30;;;;;;5012973;28;20683;-53
2023/03/08 00:46:32;;;;;;;4.40;3.20;;;6.60;44.30;;;;;;5012998;28;20272;-51
2023/03/08 00:49:03;;;;;;;2.97;2.17;;;6.60;44.30;;;;;;5013197;28;20435;-56
2023/03/08 00:51:28;;;;;;;3.70;2.70;;;6.60;44.40;;;;;;5013419;28;20250;-52
2023/03/08 00:53:54;;;;;;;2.40;2.10;;;6.50;44.50;;;;;;5012699;28;20333;-54
2023/03/08 00:56:20;;;;;;;3.00;1.53;;;6.50;44.50;;;;;;5013344;28;20190;-52
2023/03/08 00:58:45;;;;;;;2.83;1.87;;;6.50;44.50;;;;;;5013215;28;20654;-55
2023/03/08 01:01:15;;;;;;;2.20;1.67;;;6.50;44.50;;;;;;5012909;28;20167;-52
2023/03/08 01:03:41;;;;;;;4.63;2.38;;;6.50;44.50;;;;;;5012511;28;20191;-53
2023/03/08 01:06:11;;;;;;;2.77;1.80;;;6.50;44.50;;;;;;5012645;28;20232;-54
2023/03/08 01:08:38;;;;;;;6.32;2.65;;;6.50;44.40;;;;;;5012721;28;20167;-53
2023/03/08 01:11:04;;;;;;;4.28;2.40;;;6.50;44.50;;;;;;5013036;28;20194;-54
2023/03/08 01:13:33;;;;;;;5.97;3.47;;;6.50;44.40;;;;;;5012349;28;20563;-57
2023/03/08 01:16:00;;;;;;;4.82;3.30;;;6.60;44.50;;;;;;5012856;28;20484;-53
2023/03/08 01:18:26;;;;;;;4.72;3.03;;;6.50;44.50;;;;;;5012600;28;20170;-54
2023/03/08 01:20:57;;;;;;;5.25;3.85;;;6.50;44.50;;;;;;5012808;28;20198;-57
2023/03/08 01:23:23;;;;;;;6.28;4.13;;;6.50;44.50;;;;;;5012117;28;20678;-52
2023/03/08 01:25:48;;;;;;;6.87;3.70;;;6.50;44.60;;;;;;5012568;28;20220;-56
2023/03/08 01:28:14;;;;;;;6.60;4.47;;;6.40;44.60;;;;;;5012421;28;20689;-53
2023/03/08 01:30:40;;;;;;;5.10;4.00;;;6.40;44.50;;;;;;5012433;28;20179;-51
2023/03/08 01:33:05;;;;;;;12.43;4.97;;;6.40;45.50;;;;;;5012234;28;20535;-55
2023/03/08 01:35:31;;;;;;;8.07;3.30;;;6.40;44.70;;;;;;5012448;28;20171;-54
2023/03/08 01:37:57;;;;;;;6.60;3.63;;;6.40;44.80;;;;;;5012709;28;20210;-53
2023/03/08 01:40:23;;;;;;;6.10;2.93;;;6.40;44.60;;;;;;5012805;28;20293;-55
2023/03/08 01:42:48;;;;;;;3.50;2.20;;;6.50;44.60;;;;;;5012783;28;20202;-51
2023/03/08 01:45:52;;;;;;;10.23;2.57;;;6.40;44.40;;;;;;5012233;28;20552;-52
2023/03/08 01:48:24;;;;;;;2.67;2.47;;;6.50;44.50;;;;;;5012761;28;20261;-56
2023/03/08 01:50:50;;;;;;;4.45;2.85;;;6.50;44.50;;;;;;5012800;28;20183;-54
2023/03/08 01:53:16;;;;;;;4.67;1.83;;;6.50;44.40;;;;;;5012055;28;20689;-53
2023/03/08 01:55:41;;;;;;;9.48;2.45;;;6.50;44.20;;;;;;5012428;28;20589;-53
2023/03/08 01:58:07;;;;;;;4.77;2.37;;;6.50;44.10;;;;;;5013646;28;20273;-55
2023/03/08 02:00:33;;;;;;;5.50;2.23;;;6.50;44.20;;;;;;5016582;28;20201;-51
2023/03/08 02:03:03;;;;;;;3.63;2.50;;;6.50;43.90;;;;;;5016124;28;20463;-53
2023/03/08 02:05:30;;;;;;;7.22;2.83;;;6.50;43.70;;;;;;5016303;28;20181;-52
2023/03/08 02:07:56;;;;;;;6.18;2.40;;;6.50;43.70;;;;;;5016482;28;20226;-53
2023/03/08 02:10:22;;;;;;;4.70;2.10;;;6.50;43.80;;;;;;5016060;28;20639;-55
2023/03/08 02:12:48;;;;;;;4.00;2.40;;;6.40;43.80;;;;;;5016013;28;20175;-53
2023/03/08 02:15:17;;;;;;;2.60;1.70;;;6.40;43.90;;;;;;5016297;28;20433;-52
2023/03/08 02:17:43;;;;;;;5.95;2.63;;;6.40;44.00;;;;;;5016264;28;20178;-52
2023/03/08 02:20:09;;;;;;;4.72;2.88;;;6.40;44.00;;;;;;5016044;28;20202;-54
2023/03/08 02:22:39;;;;;;;3.80;2.53;;;6.50;43.90;;;;;;5016095;28;20167;-52
2023/03/08 02:25:19;;;;;;;4.88;2.65;;;6.40;43.90;;;;;;5015574;28;20191;-51
2023/03/08 02:27:46;;;;;;;12.15;2.33;;;6.40;43.90;;;;;;5015966;28;20194;-53
2023/03/08 02:30:14;;;;;;;4.45;2.33;;;6.40;44.10;;;;;;5015970;28;20182;-51
2023/03/08 02:32:40;;;;;;;3.70;2.50;;;6.50;44.10;;;;;;5015869;28;20182;-52
2023/03/08 02:35:06;;;;;;;3.80;2.70;;;6.40;44.20;;;;;;5015530;28;20197;-52
2023/03/08 02:37:32;;;;;;;3.53;2.60;;;6.40;44.20;;;;;;5015408;28;20202;-53
2023/03/08 02:39:58;;;;;;;3.72;2.65;;;6.40;44.20;;;;;;5015535;28;20203;-52
2023/03/08 02:42:24;;;;;;;3.27;2.90;;;6.50;44.30;;;;;;5015549;28;20178;-55
2023/03/08 02:44:50;;;;;;;3.47;2.07;;;6.50;44.30;;;;;;5015136;28;20189;-52
2023/03/08 02:47:15;;;;;;;3.20;2.37;;;6.50;44.40;;;;;;5015332;28;20217;-52
2023/03/08 02:49:41;;;;;;;4.23;2.30;;;6.50;44.20;;;;;;5015408;28;20278;-55
2023/03/08 02:52:07;;;;;;;9.83;2.70;;;6.50;44.20;;;;;;5015314;28;20405;-52
2023/03/08 02:54:33;;;;;;;4.97;2.60;;;6.50;44.30;;;;;;5015007;28;20217;-55
2023/03/08 02:56:58;;;;;;;5.07;2.50;;;6.50;44.30;;;;;;5015083;28;20175;-53
2023/03/08 02:59:25;;;;;;;4.77;3.33;;;6.50;44.30;;;;;;5015339;28;20281;-53
2023/03/08 03:01:51;;;;;;;3.65;2.63;;;6.50;44.30;;;;;;5015378;28;20224;-55
2023/03/08 03:04:17;;;;;;;3.37;2.10;;;6.50;44.40;;;;;;5015046;28;20186;-54
2023/03/08 03:06:43;;;;;;;3.20;2.30;;;6.50;44.20;;;;;;5015095;28;20405;-53
2023/03/08 03:09:09;;;;;;;2.97;2.27;;;6.60;44.10;;;;;;5015107;28;20405;-52
2023/03/08 03:11:35;;;;;;;3.63;2.50;;;6.50;44.00;;;;;;5015007;28;20639;-53
2023/03/08 03:14:02;;;;;;;5.30;2.35;;;6.50;44.20;;;;;;5014798;28;20202;-54
2023/03/08 03:16:27;;;;;;;5.90;2.80;;;6.50;44.20;;;;;;5014989;28;20170;-55
2023/03/08 03:18:55;;;;;;;3.80;2.40;;;6.50;44.30;;;;;;5014849;28;20233;-51
2023/03/08 03:21:21;;;;;;;3.58;2.55;;;6.50;44.10;;;;;;5014821;28;20198;-55
2023/03/08 03:23:47;;;;;;;4.10;2.60;;;6.50;44.10;;;;;;5014616;28;20297;-51
2023/03/08 03:26:20;;;;;;;5.38;2.38;;;6.50;44.10;;;;;;5014642;28;20181;-52
2023/03/08 03:28:46;;;;;;;4.07;2.90;;;6.60;44.10;;;;;;5014690;28;20158;-55
2023/03/08 03:31:18;;;;;;;3.65;2.22;;;6.60;44.20;;;;;;5015045;28;20270;-53
2023/03/08 03:33:45;;;;;;;3.08;2.33;;;6.60;44.10;;;;;;5014215;28;20666;-56
2023/03/08 03:36:13;;;;;;;3.42;2.67;;;6.60;44.70;;;;;;5014694;28;20515;-54
2023/03/08 03:38:39;;;;;;;3.35;2.65;;;6.50;44.10;;;;;;5014611;28;20182;-52
2023/03/08 03:41:08;;;;;;;4.82;2.72;;;6.50;44.10;;;;;;5014391;28;20241;-52
2023/03/08 03:43:35;;;;;;;3.85;2.33;;;6.50;44.20;;;;;;5014189;28;20234;-55
2023/03/08 03:46:03;;;;;;;5.45;2.80;;;6.50;44.10;;;;;;5014471;28;20277;-52
2023/03/08 03:48:29;;;;;;;3.80;2.90;;;6.50;44.40;;;;;;5014367;28;20171;-53
2023/03/08 03:51:21;;;;;;;3.53;3.10;;;6.50;44.10;;;;;;5014459;28;20573;-53
2023/03/08 03:53:48;;;;;;;3.65;2.30;;;6.60;44.10;;;;;;5012840;28;20222;-51
2023/03/08 03:56:17;;;;;;;3.05;2.25;;;6.60;44.10;;;;;;5014256;28;20197;-52
2023/03/08 03:58:43;;;;;;;3.85;2.70;;;6.60;44.20;;;;;;5013906;28;20229;-55
2023/03/08 04:01:23;;;;;;;3.13;2.70;;;6.60;44.10;;;;;;5014126;28;20170;-53
2023/03/08 04:03:49;;;;;;;3.50;2.50;;;6.60;44.30;;;;;;5013930;28;20194;-54
2023/03/08 04:06:21;;;;;;;3.72;2.38;;;6.50;44.20;;;;;;5014048;28;20193;-55
2023/03/08 04:08:47;;;;;;;4.47;2.80;;;6.60;44.30;;;;;;5014005;28;20205;-55
2023/03/08 04:11:16;;;;;;;5.38;2.88;;;6.60;44.20;;;;;;5014205;28;20175;-53
2023/03/08 04:13:43;;;;;;;3.80;2.75;;;6.60;44.10;;;;;;5013592;28;20195;-52
2023/03/08 04:16:23;;;;;;;3.20;2.65;;;6.60;44.10;;;;;;5013807;28;20635;-53
2023/03/08 04:18:56;;;;;;;4.80;2.95;;;6.60;44.10;;;;;;5013985;28;20266;-53
2023/03/08 04:21:22;;;;;;;3.58;2.25;;;6.60;44.10;;;;;;5013158;28;20159;-53
2023/03/08 04:23:48;;;;;;;4.93;3.15;;;6.60;44.20;;;;;;5013411;28;20199;-51
2023/03/08 04:26:14;;;;;;;3.53;2.83;;;6.60;44.30;;;;;;5013762;28;20649;-53
2023/03/08 04:28:41;;;;;;;3.90;2.67;;;6.50;44.40;;;;;;5013662;28;20425;-54
2023/03/08 04:31:17;;;;;;;4.65;3.15;;;6.60;44.40;;;;;;5013706;28;20166;-52
2023/03/08 04:33:44;;;;;;;5.82;3.38;;;6.60;44.30;;;;;;5013203;28;20220;-54
2023/03/08 04:36:10;;;;;;;3.58;2.45;;;6.60;44.30;;;;;;5013429;28;20654;-54
2023/03/08 04:38:36;;;;;;;6.32;3.15;;;6.60;44.20;;;;;;5013179;28;20294;-58
2023/03/08 04:41:10;;;;;;;3.50;2.93;;;6.60;44.20;;;;;;5013519;28;20249;-51
2023/03/08 04:43:43;;;;;;;5.25;3.60;;;6.60;44.30;;;;;;5012895;28;20666;-52
2023/03/08 04:46:08;;;;;;;5.10;3.50;;;6.60;44.30;;;;;;5013328;28;20285;-54
2023/03/08 04:48:34;;;;;;;5.00;3.50;;;6.60;44.60;;;;;;5013331;28;20198;-55
2023/03/08 04:51:02;;;;;;;6.63;4.15;;;6.60;44.30;;;;;;5013096;28;20567;-54
2023/03/08 04:53:29;;;;;;;6.15;4.45;;;6.70;44.40;;;;;;5012652;28;20666;-54
2023/03/08 04:55:55;;;;;;;7.55;4.57;;;6.60;44.40;;;;;;5013093;28;20170;-56
2023/03/08 04:58:22;;;;;;;7.50;4.65;;;6.60;44.40;;;;;;5013243;28;20261;-53
2023/03/08 05:00:48;;;;;;;8.65;4.80;;;6.70;44.40;;;;;;5013162;28;20197;-54
2023/03/08 05:03:13;;;;;;;6.93;5.03;;;6.60;44.40;;;;;;5012832;28;20194;-55
2023/03/08 05:05:51;;;;;;;7.87;5.13;;;6.60;44.50;;;;;;5013080;28;20503;-52
2023/03/08 05:08:17;;;;;;;6.60;5.15;;;6.60;44.50;;;;;;5013017;28;20174;-56
2023/03/08 05:10:59;;;;;;;7.68;5.60;;;6.60;44.50;;;;;;5012825;28;20182;-56
2023/03/08 05:13:27;;;;;;;7.93;5.13;;;6.60;44.60;;;;;;5012413;28;20651;-53
2023/03/08 05:15:53;;;;;;;6.82;5.35;;;6.60;44.50;;;;;;5012562;28;20653;-54
2023/03/08 05:18:19;;;;;;;8.88;5.20;;;6.50;44.60;;;;;;5012565;28;20539;-56
2023/03/08 05:20:56;;;;;;;11.90;6.17;;;6.50;44.70;;;;;;5012427;28;20195;-50
2023/03/08 05:23:22;;;;;;;8.75;5.40;;;6.50;44.80;;;;;;5012199;28;20456;-55
2023/03/08 05:25:51;;;;;;;10.05;5.70;;;6.50;45.00;;;;;;5012806;28;20274;-52
2023/03/08 05:28:17;;;;;;;11.30;6.43;;;6.50;45.00;;;;;;5012456;28;20654;-53
2023/03/08 05:30:43;;;;;;;9.67;6.63;;;6.50;45.10;;;;;;5012850;28;20198;-57
2023/03/08 05:33:09;;;;;;;9.87;5.37;;;6.50;45.00;;;;;;5011370;28;20288;-56
2023/03/08 05:35:34;;;;;;;11.53;6.37;;;6.50;45.10;;;;;;5012837;28;20205;-53
2023/03/08 05:38:00;;;;;;;11.90;7.37;;;6.50;45.30;;;;;;5012436;28;20669;-54
2023/03/08 05:40:26;;;;;;;9.23;6.70;;;6.50;45.30;;;;;;5012211;28;20798;-55
2023/03/08 05:42:53;;;;;;;10.80;7.93;;;6.50;45.10;;;;;;5012036;28;20175;-56
2023/03/08 05:45:19;;;;;;;11.90;7.85;;;6.50;45.10;;;;;;5012381;28;20269;-54
2023/03/08 05:47:45;;;;;;;13.57;8.00;;;6.50;45.00;;;;;;5012596;28;20190;-56
2023/03/08 05:50:11;;;;;;;10.90;6.67;;;6.40;45.20;;;;;;5012167;28;20634;-52
2023/03/08 05:52:37;;;;;;;11.05;6.93;;;6.40;45.20;;;;;;5012100;28;20666;-51
2023/03/08 05:55:04;;;;;;;11.85;8.00;;;6.40;45.30;;;;;;5011899;28;20210;-54
2023/03/08 05:57:30;;;;;;;14.52;7.20;;;6.40;45.30;;;;;;5012349;28;20175;-58
2023/03/08 05:59:56;;;;;;;10.17;6.17;;;6.40;45.40;;;;;;5011974;28;20679;-55
2023/03/08 06:02:21;;;;;;;15.50;7.93;;;6.40;45.40;;;;;;5012125;28;20178;-52
2023/03/08 06:04:47;;;;;;;10.53;7.30;;;6.40;45.40;;;;;;5011940;28;20186;-56
2023/03/08 06:07:13;;;;;;;11.57;6.87;;;6.40;45.40;;;;;;5012001;28;20179;-58
2023/03/08 06:09:38;;;;;;;13.57;7.40;;;6.40;45.60;;;;;;5012051;28;20179;-54
2023/03/08 06:12:04;;;;;;;15.67;7.00;;;6.40;45.50;;;;;;5011955;28;20178;-53
2023/03/08 06:14:30;;;;;;;11.73;7.70;;;6.40;45.50;;;;;;5011621;28;20532;-58
2023/03/08 06:16:56;;;;;;;14.50;7.60;;;6.40;45.40;;;;;;5011970;28;20677;-55
2023/03/08 06:19:21;;;;;;;10.60;7.47;;;6.50;45.50;;;;;;5012114;28;20191;-54
2023/03/08 06:21:47;;;;;;;9.63;6.43;;;6.50;45.60;;;;;;5011912;28;20508;-54
2023/03/08 06:24:13;;;;;;;8.23;5.60;;;6.50;45.40;;;;;;5011610;28;20194;-55
2023/03/08 06:26:39;;;;;;;12.70;6.30;;;6.60;45.40;;;;;;5011780;28;20171;-54
2023/03/08 06:29:04;;;;;;;14.77;6.60;;;6.60;45.20;;;;;;5011924;28;20191;-53
2023/03/08 06:31:30;;;;;;;10.13;6.60;;;6.60;45.20;;;;;;5012206;28;20171;-54
2023/03/08 06:33:56;;;;;;;12.20;7.00;;;6.60;45.40;;;;;;5011784;28;20539;-51
2023/03/08 06:36:22;;;;;;;13.60;7.07;;;6.60;45.40;;;;;;5011883;28;20159;-54
2023/03/08 06:38:48;;;;;;;13.05;7.20;;;6.60;45.50;;;;;;5011783;28;20182;-54
2023/03/08 06:41:15;;;;;;;14.13;7.70;;;6.60;45.50;;;;;;5011817;28;20187;-52
2023/03/08 06:43:41;;;;;;;10.73;7.60;;;6.70;45.50;;;;;;5011893;28;20265;-56
2023/03/08 06:46:12;;;;;;;12.97;7.27;;;6.70;45.40;;;;;;5015331;28;20273;-55
2023/03/08 06:48:39;;;;;;;12.52;5.80;;;6.70;45.30;;;;;;5015524;28;20398;-56
2023/03/08 06:51:05;;;;;;;12.52;6.10;;;6.80;45.10;;;;;;5015082;28;20261;-53
2023/03/08 06:53:32;;;;;;;9.30;6.40;;;6.80;45.00;;;;;;5015086;28;20194;-52
2023/03/08 06:55:57;;;;;;;8.38;5.35;;;6.80;45.10;;;;;;5014924;28;20176;-56
2023/03/08 06:58:23;;;;;;;8.93;5.23;;;6.80;44.90;;;;;;5015046;28;20220;-58
2023/03/08 07:00:49;;;;;;;10.10;6.27;;;6.80;44.90;;;;;;5015019;28;20249;-53
2023/03/08 07:03:15;;;;;;;9.10;5.30;;;6.80;45.00;;;;;;5014832;28;20269;-54
2023/03/08 07:05:41;;;;;;;10.05;5.55;;;6.90;45.30;;;;;;5015256;28;20261;-51
2023/03/08 07:08:07;;;;;;;10.60;6.10;;;6.90;45.30;;;;;;5014829;28;20726;-52
2023/03/08 07:10:33;;;;;;;8.35;5.25;;;7.10;45.30;;;;;;5014956;28;20186;-54
2023/03/08 07:12:58;;;;;;;7.97;5.10;;;7.20;45.00;;;;;;5014552;28;20701;-54
2023/03/08 07:15:24;;;;;;;8.37;5.17;;;7.20;44.90;;;;;;5014770;28;20433;-52
2023/03/08 07:17:54;;;;;;;7.55;5.25;;;7.30;44.70;;;;;;5014809;28;20178;-55
2023/03/08 07:20:21;;;;;;;10.98;5.97;;;7.30;44.80;;;;;;5014698;28;20202;-50
2023/03/08 07:22:47;;;;;;;8.60;5.72;;;7.30;44.40;;;;;;5014538;28;20258;-53
2023/03/08 07:25:17;;;;;;;8.13;5.07;;;7.30;44.40;;;;;;5014776;28;20230;-57
2023/03/08 07:27:43;;;;;;;10.00;6.20;;;7.40;44.60;;;;;;5014516;28;20171;-52
2023/03/08 07:30:12;;;;;;;10.40;6.37;;;7.40;44.50;;;;;;5014768;28;20189;-56
2023/03/08 07:32:39;;;;;;;9.18;5.90;;;7.50;44.60;;;;;;5014675;28;20755;-55
2023/03/08 07:35:06;;;;;;;9.85;6.60;;;7.50;44.40;;;;;;5014122;28;20214;-54
2023/03/08 07:37:32;;;;;;;8.18;5.20;;;7.60;44.40;;;;;;5014244;28;20185;-54
2023/03/08 07:39:58;;;;;;;5.30;4.05;;;7.60;44.40;;;;;;5014219;28;20298;-52
2023/03/08 07:42:26;;;;;;;12.57;4.70;;;7.70;44.40;;;;;;5014290;28;20265;-55
2023/03/08 07:44:52;;;;;;;9.05;4.53;;;7.70;44.30;;;;;;5014033;28;20191;-53
2023/03/08 07:47:18;;;;;;;6.10;3.97;;;7.70;44.10;;;;;;5014267;28;20252;-53
2023/03/08 07:49:43;;;;;;;4.80;3.60;;;7.80;43.70;;;;;;5014346;28;20582;-55
2023/03/08 07:52:09;;;;;;;4.90;3.00;;;7.80;43.60;;;;;;5013930;28;20179;-55
2023/03/08 07:54:35;;;;;;;8.03;3.83;;;7.80;43.60;;;;;;5013852;28;20479;-54
2023/03/08 07:57:01;;;;;;;7.90;3.00;;;7.80;43.70;;;;;;5013143;28;20670;-51
2023/03/08 07:59:27;;;;;;;4.22;2.42;;;7.80;43.70;;;;;;5013748;28;20217;-59
2023/03/08 08:01:53;;;;;;;3.88;2.78;;;7.90;43.90;;;;;;5013947;28;20716;-55
2023/03/08 08:04:21;;;;;;;4.33;3.03;;;7.90;44.00;;;;;;5013812;28;20277;-52
2023/03/08 08:06:47;;;;;;;6.07;3.65;;;8.00;43.90;;;;;;5013682;28;20171;-57
2023/03/08 08:09:17;;;;;;;4.17;2.80;;;8.00;43.70;;;;;;5014030;28;20182;-56
2023/03/08 08:11:42;;;;;;;5.38;3.22;;;8.00;43.60;;;;;;5013702;28;20505;-54
2023/03/08 08:14:08;;;;;;;9.20;4.27;;;8.00;43.50;;;;;;5013359;28;20674;-54
2023/03/08 08:16:34;;;;;;;10.17;6.30;;;8.00;43.40;;;;;;5013723;28;20568;-57
2023/03/08 08:19:00;;;;;;;10.00;7.47;;;8.00;42.80;;;;;;5013531;28;20186;-54
2023/03/08 08:21:25;;;;;;;14.33;8.00;;;8.00;42.90;;;;;;5013489;28;20174;-51
2023/03/08 08:23:53;;;;;;;8.23;5.57;;;7.90;43.10;;;;;;5013247;28;20199;-53
2023/03/08 08:26:20;;;;;;;12.57;6.68;;;7.90;43.00;;;;;;5013511;28;20232;-52
2023/03/08 08:28:50;;;;;;;7.25;5.40;;;7.80;43.00;;;;;;5013630;28;20170;-56
2023/03/08 08:31:19;;;;;;;11.27;7.20;;;7.80;43.50;;;;;;5013352;28;20183;-55
2023/03/08 08:33:45;;;;;;;12.20;7.65;;;7.70;43.80;;;;;;5012880;28;20237;-52
2023/03/08 08:36:16;;;;;;;10.33;7.50;;;7.70;44.00;;;;;;5013248;28;20206;-55
2023/03/08 08:38:44;;;;;;;10.82;7.80;;;7.70;43.60;;;;;;5013464;28;20185;-57
2023/03/08 08:41:11;;;;;;;10.98;7.30;;;7.70;43.70;;;;;;5013151;28;20202;-53
2023/03/08 08:43:37;;;;;;;11.80;8.35;;;7.70;43.90;;;;;;5012819;28;20194;-55
2023/03/08 08:46:03;;;;;;;10.70;7.40;;;7.60;44.10;;;;;;5013147;28;20198;-53
2023/03/08 08:48:31;;;;;;;15.43;9.65;;;7.60;44.20;;;;;;5013143;28;20406;-52
2023/03/08 08:50:58;;;;;;;11.55;7.43;;;7.60;44.20;;;;;;5013017;28;20186;-54
2023/03/08 08:53:25;;;;;;;10.50;7.20;;;7.50;44.30;;;;;;5012676;28;20205;-55
2023/03/08 08:55:50;;;;;;;12.93;8.40;;;7.50;44.50;;;;;;5012911;28;20663;-51
2023/03/08 08:58:16;;;;;;;12.00;8.60;;;7.50;44.60;;;;;;5012925;28;20186;-54
2023/03/08 09:00:43;;;;;;;9.60;7.50;;;7.60;44.60;;;;;;5012851;28;20226;-54
2023/03/08 09:03:09;;;;;;;12.15;8.63;;;7.60;44.60;;;;;;5012721;28;20193;-52
2023/03/08 09:05:38;;;;;;;10.90;7.78;;;7.60;44.50;;;;;;5013078;28;20190;-59
2023/03/08 09:08:04;;;;;;;14.50;8.60;;;7.70;44.70;;;;;;5012879;28;20508;-57
2023/03/08 09:10:33;;;;;;;12.70;9.30;;;7.70;44.70;;;;;;5012747;28;20166;-52
2023/03/08 09:12:59;;;;;;;13.32;9.32;;;7.70;44.60;;;;;;5012388;28;20178;-51
2023/03/08 09:15:25;;;;;;;11.20;8.50;;;7.70;44.50;;;;;;5012565;28;20174;-56
2023/03/08 09:17:52;;;;;;;12.35;7.78;;;7.60;44.30;;;;;;5012792;28;20429;-55
2023/03/08 09:20:17;;;;;;;12.05;8.00;;;7.60;44.40;;;;;;5012471;28;20586;-55
2023/03/08 09:22:44;;;;;;;10.83;8.20;;;7.50;44.50;;;;;;5012644;28;20237;-59
2023/03/08 09:25:11;;;;;;;14.07;8.35;;;7.50;44.70;;;;;;5012312;28;20428;-54
2023/03/08 09:27:38;;;;;;;11.20;7.35;;;7.50;45.00;;;;;;5012398;28;20183;-57
2023/03/08 09:30:09;;;;;;;11.68;7.65;;;7.50;45.00;;;;;;5012255;28;20178;-53
2023/03/08 09:32:35;;;;;;;11.00;8.10;;;7.60;45.10;;;;;;5012319;28;20170;-53
2023/03/08 09:35:03;;;;;;;13.50;7.53;;;7.60;45.00;;;;;;5012289;28;20291;-55
2023/03/08 09:37:29;;;;;;;10.55;7.60;;;7.70;45.10;;;;;;5012736;28;20187;-54
2023/03/08 09:39:54;;;;;;;9.60;6.90;;;7.70;44.90;;;;;;5012297;28;20682;-53
2023/03/08 09:42:26;;;;;;;10.00;7.40;;;7.60;44.90;;;;;;5012365;28;20171;-53
2023/03/08 09:45:00;;;;;;;12.32;7.95;;;7.60;45.00;;;;;;5012016;28;20194;-55
2023/03/08 09:47:41;;;;;;;10.88;8.43;;;7.70;45.10;;;;;;5012108;28;20224;-53
2023/03/08 09:50:32;;;;;;;20.45;12.27;;;7.60;45.20;;;;;;5012297;28;20603;-53
2023/03/08 09:53:12;;;;;;;11.82;8.20;;;7.70;45.50;;;;;;5011954;28;20170;-55
2023/03/08 09:55:54;;;;;;;11.73;7.90;;;7.70;45.40;;;;;;5012203;28;20249;-53
2023/03/08 09:58:32;;;;;;;11.63;6.88;;;7.70;45.40;;;;;;5012286;28;20265;-53
2023/03/08 10:01:20;;;;;;;10.10;6.97;;;7.70;45.60;;;;;;5012071;28;20208;-57
2023/03/08 10:04:16;;;;;;;11.35;7.70;;;7.70;45.50;;;;;;5012057;28;20211;-57
2023/03/08 10:07:16;;;;;;;12.65;8.85;;;7.70;45.50;;;;;;4992684;28;20203;-53
2023/03/08 10:10:00;;;;;;;10.30;7.72;;;7.80;45.60;;;;;;5001249;28;20266;-53
2023/03/08 10:12:34;;;;;;;10.75;6.78;;;7.80;45.50;;;;;;5012049;28;20519;-54
2023/03/08 10:15:16;;;;;;;10.20;7.07;;;7.80;45.40;;;;;;5011890;28;20202;-53
2023/03/08 10:17:56;;;;;;;9.32;6.07;;;7.80;45.30;;;;;;5012319;28;20167;-54
2023/03/08 10:20:28;;;;;;;8.98;6.95;;;7.80;45.30;;;;;;5015063;28;20195;-53
2023/03/08 10:23:09;;;;;;;9.82;6.53;;;7.80;45.40;;;;;;5015651;28;20183;-56
2023/03/08 10:25:35;;;;;;;11.00;5.95;;;7.80;45.50;;;;;;5015831;28;20266;-53
2023/03/08 10:28:03;;;;;;;9.18;6.40;;;7.80;45.40;;;;;;5015652;28;20182;-56
2023/03/08 10:30:53;;;;;;;9.48;6.40;;;7.80;45.40;;;;;;5015441;28;20186;-56
2023/03/08 10:33:20;;;;;;;10.10;5.60;;;7.80;45.50;;;;;;5015476;28;20536;-52
2023/03/08 10:36:15;;;;;;;6.18;4.95;;;7.80;45.40;;;;;;5015464;28;20661;-52
2023/03/08 10:38:42;;;;;;;10.30;6.15;;;7.80;45.10;;;;;;5015500;28;20262;-53
2023/03/08 10:41:17;;;;;;;11.70;7.75;;;7.80;45.40;;;;;;5015249;28;20238;-57
2023/03/08 10:43:53;;;;;;;6.63;4.97;;;7.80;45.40;;;;;;5015052;28;20726;-56
2023/03/08 10:46:21;;;;;;;7.03;5.72;;;7.80;45.60;;;;;;5015358;28;20194;-57
2023/03/08 10:48:47;;;;;;;7.88;5.07;;;7.80;45.70;;;;;;5015289;28;20270;-53
2023/03/08 10:51:21;;;;;;;6.65;4.95;;;7.90;45.90;;;;;;5015143;28;20206;-56
2023/03/08 10:53:54;;;;;;;5.70;4.30;;;8.00;45.80;;;;;;5014873;28;20687;-53
2023/03/08 10:56:51;;;;;;;9.13;6.43;;;8.00;45.30;;;;;;5015223;28;20275;-58
2023/03/08 10:59:36;;;;;;;5.22;4.00;;;8.10;45.40;;;;;;5007151;28;20297;-53
2023/03/08 11:02:28;;;;;;;8.18;5.30;;;8.10;45.00;;;;;;5015517;28;20173;-54
2023/03/08 11:04:56;;;;;;;6.07;4.40;;;8.00;45.00;;;;;;5013574;28;20201;-56
2023/03/08 11:07:26;;;;;;;7.78;4.60;;;7.90;45.30;;;;;;5014898;28;20170;-58
2023/03/08 11:10:04;;;;;;;7.22;5.78;;;8.00;45.40;;;;;;5014862;28;20171;-54
2023/03/08 11:12:29;;;;;;;8.00;5.50;;;8.00;45.40;;;;;;5015101;28;20472;-53
2023/03/08 11:14:55;;;;;;;6.80;4.50;;;8.00;45.40;;;;;;5014833;28;20256;-56
2023/03/08 11:17:38;;;;;;;7.40;5.63;;;8.00;45.50;;;;;;5014721;28;20198;-52
2023/03/08 11:20:22;;;;;;;7.45;5.72;;;8.00;45.40;;;;;;5014709;28;20206;-52
2023/03/08 11:23:07;;;;;;;6.35;5.07;;;8.00;46.30;;;;;;5014655;28;20627;-53
2023/03/08 11:25:49;;;;;;;8.57;5.68;;;8.00;45.70;;;;;;5014729;28;20170;-57
2023/03/08 11:28:34;;;;;;;7.45;5.50;;;8.00;45.80;;;;;;5014797;28;20650;-53
2023/03/08 11:31:02;;;;;;;7.53;5.70;;;8.00;46.00;;;;;;5013297;28;20615;-56
2023/03/08 11:33:36;;;;;;;8.82;5.72;;;8.00;45.90;;;;;;5014158;28;20226;-54
2023/03/08 11:36:01;;;;;;;6.97;4.88;;;8.00;46.10;;;;;;5014698;28;20531;-55
2023/03/08 11:38:29;;;;;;;8.00;5.53;;;8.10;46.30;;;;;;5014653;28;20205;-53
2023/03/08 11:41:48;;;;;;;9.68;6.28;;;8.10;46.30;;;;;;5014258;28;20213;-52
2023/03/08 11:44:17;;;;;;;9.32;5.50;;;8.20;46.30;;;;;;4992037;28;20195;-53
2023/03/08 11:47:28;;;;;;;9.27;6.93;;;8.20;46.40;;;;;;5012685;28;20202;-54
2023/03/08 11:50:15;;;;;;;11.70;8.38;;;8.30;46.50;;;;;;5008713;28;20694;-56
2023/03/08 11:53:07;;;;;;;8.63;6.90;;;8.30;46.50;;;;;;5014284;28;20269;-58
2023/03/08 11:55:58;;;;;;;8.07;6.55;;;8.40;46.50;;;;;;5014334;28;20171;-53
2023/03/08 11:58:32;;;;;;;10.50;8.48;;;8.50;46.60;;;;;;5013942;28;20232;-56
2023/03/08 12:01:05;;;;;;;13.43;7.28;;;8.50;46.60;;;;;;5013843;28;20227;-54
2023/03/08 12:03:42;;;;;;;13.30;9.30;;;8.50;46.90;;;;;;5013611;28;20198;-53
2023/03/08 12:06:22;;;;;;;10.65;7.95;;;8.60;46.80;;;;;;5013901;28;20166;-54
2023/03/08 12:09:08;;;;;;;11.95;8.85;;;8.60;46.80;;;;;;5013946;28;20171;-54
2023/03/08 12:11:48;;;;;;;10.70;8.00;;;8.60;46.90;;;;;;5013758;28;20683;-57
2023/03/08 12:14:21;;;;;;;13.15;8.82;;;8.60;46.90;;;;;;5013396;28;20229;-54
2023/03/08 12:16:52;;;;;;;15.93;9.98;;;8.70;47.00;;;;;;5013563;28;20215;-57
2023/03/08 12:19:43;;;;;;;14.80;8.93;;;8.80;46.90;;;;;;5013488;28;20161;-56
2023/03/08 12:22:27;;;;;;;16.60;10.57;;;8.80;47.00;;;;;;5014035;28;20539;-56
2023/03/08 12:25:27;;;;;;;19.92;11.02;;;8.90;47.10;;;;;;5013221;28;20194;-53
2023/03/08 12:28:02;;;;;;;14.43;10.30;;;8.90;47.20;;;;;;5011607;28;20701;-56
2023/03/08 12:30:46;;;;;;;16.80;10.73;;;9.00;47.30;;;;;;5013713;28;20170;-53
2023/03/08 12:33:14;;;;;;;14.98;10.73;;;9.10;47.30;;;;;;5013145;28;20178;-53
2023/03/08 12:35:53;;;;;;;17.30;11.32;;;9.10;47.30;;;;;;5013198;28;20188;-56
2023/03/08 12:38:19;;;;;;;17.60;11.90;;;9.10;47.10;;;;;;5013427;28;20174;-57
2023/03/08 12:40:51;;;;;;;20.70;12.90;;;9.00;47.40;;;;;;5013306;28;20200;-53
2023/03/08 12:43:19;;;;;;;17.70;12.27;;;8.90;47.40;;;;;;5012510;28;20197;-54
2023/03/08 12:45:58;;;;;;;17.98;12.60;;;8.90;47.60;;;;;;5013137;28;20611;-59
2023/03/08 12:48:36;;;;;;;20.52;13.68;;;8.90;47.80;;;;;;5013135;28;20618;-54
2023/03/08 12:51:12;;;;;;;24.05;14.50;;;8.80;47.90;;;;;;5013104;28;20176;-56
2023/03/08 12:53:49;;;;;;;18.10;13.43;;;8.80;48.20;;;;;;5011460;28;20195;-54
2023/03/08 12:56:51;;;;;;;19.13;12.10;;;8.90;48.20;;;;;;5012949;28;20544;-54
2023/03/08 12:59:16;;;;;;;20.50;12.52;;;8.90;48.10;;;;;;5005704;28;20644;-54
2023/03/08 13:02:04;;;;;;;20.63;14.07;;;8.90;48.20;;;;;;5013031;28;20198;-56
2023/03/08 13:04:38;;;;;;;19.08;12.00;;;8.90;48.30;;;;;;5008414;28;20244;-58
2023/03/08 13:07:32;;;;;;;19.92;12.45;;;8.80;48.30;;;;;;5013073;28;20226;-54